Time;durP1;ratioP1;P1;durP2;ratioP2;P2;SDS_P1;SDS_P2;PMS_P1;PMS_P2;Temp;Humidity;BMP_temperature;BMP_pressure;BME280_temperature;BME280_humidity;BME280_pressure;Samples;Min_cycle;Max_cycle;Signal;HPM_P1;HPM_P2
2022/07/18 00:01:56;;;;;;;;;;;435.90;1945.60;;;;;;5091824;28;19946;-57
2022/07/18 00:04:22;;;;;;;;;;;435.90;1945.60;;;;;;5091992;28;19916;-57
2022/07/18 00:06:47;;;;;;;;;;;435.90;1945.60;;;;;;5091903;28;20426;-57
2022/07/18 00:09:13;;;;;;;;;;;435.90;1945.60;;;;;;5091843;28;19908;-57
2022/07/18 00:11:38;;;;;;;;;;;435.90;1945.60;;;;;;5091649;28;19912;-56
2022/07/18 00:14:04;;;;;;;;;;;435.70;1971.20;;;;;;5091438;28;19928;-57
2022/07/18 00:16:30;;;;;;;;;;;435.80;1945.60;;;;;;5091704;28;19942;-57
2022/07/18 00:18:57;;;;;;;;;;;435.80;1945.60;;;;;;5091633;28;19958;-56
2022/07/18 00:21:22;;;;;;;;;;;435.80;1945.60;;;;;;5091681;28;20362;-57
2022/07/18 00:23:48;;;;;;;;;;;435.80;1945.60;;;;;;5091774;28;19915;-58
2022/07/18 00:26:14;;;;;;;;;;;435.80;1945.60;;;;;;5091448;28;20312;-57
2022/07/18 00:28:39;;;;;;;;;;;435.80;1945.60;;;;;;5091489;28;19908;-58
2022/07/18 00:31:05;;;;;;;;;;;435.60;1971.20;;;;;;5091114;28;20258;-58
2022/07/18 00:33:30;;;;;;;;;;;435.50;1971.20;;;;;;5091239;28;19967;-58
2022/07/18 00:35:56;;;;;;;;;;;435.50;1945.60;;;;;;5091286;28;20346;-56
2022/07/18 00:38:21;;;;;;;;;;;435.60;1945.60;;;;;;5091272;28;19991;-58
2022/07/18 00:40:47;;;;;;;;;;;435.50;1945.60;;;;;;5091405;28;19923;-57
2022/07/18 00:43:13;;;;;;;;;;;435.40;1945.60;;;;;;5091083;28;19916;-58
2022/07/18 00:45:39;;;;;;;;;;;435.50;1945.60;;;;;;5091182;28;19908;-57
2022/07/18 00:48:06;;;;;;;;;;;435.50;1945.60;;;;;;5090907;28;19962;-58
2022/07/18 00:50:31;;;;;;;;;;;435.50;1945.60;;;;;;5090926;28;19935;-58
2022/07/18 00:52:57;;;;;;;;;;;435.50;1945.60;;;;;;5091343;28;20369;-58
2022/07/18 00:55:22;;;;;;;;;;;435.20;1996.80;;;;;;5091073;28;19915;-57
2022/07/18 00:57:48;;;;;;;;;;;435.20;1971.20;;;;;;5091186;28;20000;-58
2022/07/18 01:02:58;;;;;;;;;;;435.30;1945.60;;;;;;5091263;28;19958;-57
2022/07/18 01:05:24;;;;;;;;;;;435.30;1945.60;;;;;;5090663;28;20273;-57
2022/07/18 01:07:51;;;;;;;;;;;435.20;1945.60;;;;;;5090756;28;19908;-58
2022/07/18 01:10:17;;;;;;;;;;;435.20;1945.60;;;;;;5090773;28;19908;-58
2022/07/18 01:12:43;;;;;;;;;;;435.30;1920.00;;;;;;5090567;28;19920;-57
2022/07/18 01:15:09;;;;;;;;;;;435.30;1920.00;;;;;;5090673;28;20401;-58
2022/07/18 01:17:35;;;;;;;;;;;435.20;1920.00;;;;;;5090349;28;19908;-57
2022/07/18 01:20:00;;;;;;;;;;;435.20;1920.00;;;;;;5090813;28;19915;-58
2022/07/18 01:22:26;;;;;;;;;;;435.90;1920.00;;;;;;5090690;28;19915;-58
2022/07/18 01:24:52;;;;;;;;;;;435.20;1894.40;;;;;;5090482;28;19935;-58
2022/07/18 01:27:20;;;;;;;;;;;435.20;1894.40;;;;;;5090664;28;20282;-58
2022/07/18 01:29:46;;;;;;;;;;;435.30;1868.80;;;;;;5090211;28;19912;-58
2022/07/18 01:32:12;;;;;;;;;;;435.20;1894.40;;;;;;5090221;28;19912;-58
2022/07/18 01:34:38;;;;;;;;;;;435.20;1894.40;;;;;;5090531;28;20039;-57
2022/07/18 01:37:04;;;;;;;;;;;435.20;1868.80;;;;;;5090292;28;20382;-58
2022/07/18 01:39:29;;;;;;;;;;;435.20;1920.00;;;;;;5090585;28;19954;-58
2022/07/18 01:41:59;;;;;;;;;;;410.50;1945.60;;;;;;5090209;28;20308;-58
2022/07/18 01:44:25;;;;;;;;;;;410.40;1945.60;;;;;;5090305;28;19916;-57
2022/07/18 01:46:51;;;;;;;;;;;410.40;1945.60;;;;;;5090348;28;19908;-58
2022/07/18 01:49:17;;;;;;;;;;;410.30;1945.60;;;;;;5090693;28;19915;-58
2022/07/18 01:51:46;;;;;;;;;;;410.40;1945.60;;;;;;5094510;28;20010;-58
2022/07/18 01:54:12;;;;;;;;;;;410.20;1971.20;;;;;;5094460;28;19920;-58
2022/07/18 01:56:38;;;;;;;;;;;410.10;1996.80;;;;;;5094713;28;19908;-58
2022/07/18 01:59:04;;;;;;;;;;;410.00;2022.40;;;;;;5094224;28;20320;-59
2022/07/18 02:01:29;;;;;;;;;;;410.00;1996.80;;;;;;5094254;28;19920;-57
2022/07/18 02:03:55;;;;;;;;;;;410.00;1996.80;;;;;;5094305;28;19916;-58
2022/07/18 02:06:21;;;;;;;;;;;409.80;2022.40;;;;;;5094409;28;19912;-58
2022/07/18 02:08:46;;;;;;;;;;;409.90;2022.40;;;;;;5094272;28;19915;-57
2022/07/18 02:11:12;;;;;;;;;;;409.70;2022.40;;;;;;5094067;28;20301;-57
2022/07/18 02:13:37;;;;;;;;;;;409.70;2022.40;;;;;;5094311;28;19920;-58
2022/07/18 02:16:03;;;;;;;;;;;409.60;2022.40;;;;;;5093859;28;19908;-58
2022/07/18 02:18:32;;;;;;;;;;;409.60;2022.40;;;;;;5094004;28;20307;-58
2022/07/18 02:20:58;;;;;;;;;;;409.60;1996.80;;;;;;5093981;28;19916;-58
2022/07/18 02:23:23;;;;;;;;;;;409.60;2022.40;;;;;;5094027;28;20483;-58
2022/07/18 02:25:49;;;;;;;;;;;409.60;1996.80;;;;;;5093937;28;19954;-58
2022/07/18 02:28:14;;;;;;;;;;;409.60;1996.80;;;;;;5093824;28;19908;-57
2022/07/18 02:30:40;;;;;;;;;;;384.90;1971.20;;;;;;5093822;28;19999;-57
2022/07/18 02:33:06;;;;;;;;;;;409.60;1971.20;;;;;;5093546;28;19916;-57
2022/07/18 02:35:31;;;;;;;;;;;409.60;1996.80;;;;;;5093701;28;19912;-58
2022/07/18 02:37:57;;;;;;;;;;;409.60;1971.20;;;;;;5093787;28;19908;-58
2022/07/18 02:40:22;;;;;;;;;;;409.60;1971.20;;;;;;5093513;28;19950;-58
2022/07/18 02:42:48;;;;;;;;;;;409.60;1971.20;;;;;;5093609;28;19912;-57
2022/07/18 02:45:14;;;;;;;;;;;409.60;1945.60;;;;;;5093736;28;20003;-57
2022/07/18 02:47:39;;;;;;;;;;;409.70;1945.60;;;;;;5093481;28;19916;-57
2022/07/18 02:50:05;;;;;;;;;;;409.60;1971.20;;;;;;5093156;28;19994;-57
2022/07/18 02:52:31;;;;;;;;;;;384.90;1945.60;;;;;;5093382;28;19951;-57
2022/07/18 02:54:56;;;;;;;;;;;384.70;1971.20;;;;;;5093319;28;20427;-57
2022/07/18 02:57:23;;;;;;;;;;;384.70;1971.20;;;;;;5093082;28;19939;-58
2022/07/18 02:59:49;;;;;;;;;;;384.60;1971.20;;;;;;5093044;28;19908;-57
2022/07/18 03:02:14;;;;;;;;;;;384.60;1971.20;;;;;;5091767;28;19912;-57
2022/07/18 03:04:40;;;;;;;;;;;384.50;1971.20;;;;;;5093303;28;20378;-57
2022/07/18 03:07:05;;;;;;;;;;;384.60;1971.20;;;;;;5092934;28;20003;-57
2022/07/18 03:09:31;;;;;;;;;;;384.70;1945.60;;;;;;5093059;28;19908;-57
2022/07/18 03:11:56;;;;;;;;;;;384.90;1920.00;;;;;;5092786;28;19919;-57
2022/07/18 03:14:22;;;;;;;;;;;384.90;1894.40;;;;;;5092664;28;19931;-58
2022/07/18 03:16:48;;;;;;;;;;;384.90;1920.00;;;;;;5092973;28;20023;-57
2022/07/18 03:19:14;;;;;;;;;;;384.90;1920.00;;;;;;5092761;28;20011;-58
2022/07/18 03:21:39;;;;;;;;;;;384.90;1971.20;;;;;;5092932;28;19934;-57
2022/07/18 03:24:05;;;;;;;;;;;384.80;1971.20;;;;;;5092879;28;19908;-58
2022/07/18 03:26:30;;;;;;;;;;;384.80;1996.80;;;;;;5092852;28;19915;-58
2022/07/18 03:28:56;;;;;;;;;;;384.60;2048.00;;;;;;5092646;28;19908;-57
2022/07/18 03:31:22;;;;;;;;;;;384.50;2048.00;;;;;;5092418;28;19964;-58
2022/07/18 03:33:47;;;;;;;;;;;384.40;2022.40;;;;;;5092555;28;19920;-57
2022/07/18 03:36:13;;;;;;;;;;;384.40;1996.80;;;;;;5092317;28;20003;-57
2022/07/18 03:38:42;;;;;;;;;;;384.40;1996.80;;;;;;5092756;28;19908;-57
2022/07/18 03:41:11;;;;;;;;;;;384.40;1996.80;;;;;;5092255;28;19938;-57
2022/07/18 03:43:37;;;;;;;;;;;384.50;1996.80;;;;;;5092324;28;19912;-57
2022/07/18 03:46:03;;;;;;;;;;;384.60;1971.20;;;;;;5092140;28;19946;-57
2022/07/18 03:48:29;;;;;;;;;;;384.80;1945.60;;;;;;5092320;28;19908;-57
2022/07/18 03:50:54;;;;;;;;;;;384.90;1920.00;;;;;;5092146;28;19915;-56
2022/07/18 03:53:20;;;;;;;;;;;409.70;1920.00;;;;;;5092232;28;19927;-57
2022/07/18 03:55:46;;;;;;;;;;;409.70;1971.20;;;;;;5092215;28;19913;-56
2022/07/18 03:58:11;;;;;;;;;;;409.70;1945.60;;;;;;5092295;28;19915;-57
2022/07/18 04:00:37;;;;;;;;;;;409.70;1920.00;;;;;;5091869;28;19927;-57
2022/07/18 04:03:02;;;;;;;;;;;409.70;1945.60;;;;;;5091920;28;19908;-57
2022/07/18 04:05:28;;;;;;;;;;;409.80;1971.20;;;;;;5091872;28;19908;-57
2022/07/18 04:07:54;;;;;;;;;;;409.90;1971.20;;;;;;5091897;28;19995;-57
2022/07/18 04:10:19;;;;;;;;;;;409.90;1945.60;;;;;;5091755;28;19908;-57
2022/07/18 04:12:49;;;;;;;;;;;409.90;1971.20;;;;;;5091238;28;19912;-57
2022/07/18 04:15:15;;;;;;;;;;;410.00;1920.00;;;;;;5091657;28;19912;-57
2022/07/18 04:17:41;;;;;;;;;;;410.00;1920.00;;;;;;5091845;28;20360;-57
2022/07/18 04:20:07;;;;;;;;;;;410.20;1920.00;;;;;;5091367;28;19939;-57
2022/07/18 04:22:43;;;;;;;;;;;410.20;1920.00;;;;;;5091322;28;20014;-58
2022/07/18 04:25:08;;;;;;;;;;;410.30;1920.00;;;;;;5091615;28;19908;-57
2022/07/18 04:27:34;;;;;;;;;;;410.30;1920.00;;;;;;5091558;28;19961;-57
2022/07/18 04:29:59;;;;;;;;;;;410.40;1894.40;;;;;;5091563;28;20266;-57
2022/07/18 04:32:25;;;;;;;;;;;410.40;1920.00;;;;;;5091334;28;19961;-57
2022/07/18 04:34:51;;;;;;;;;;;410.50;1920.00;;;;;;5091430;28;19923;-56
2022/07/18 04:37:16;;;;;;;;;;;435.20;1945.60;;;;;;5091215;28;20368;-56
2022/07/18 04:39:42;;;;;;;;;;;435.30;1894.40;;;;;;5091355;28;20327;-57
2022/07/18 04:42:07;;;;;;;;;;;435.30;1894.40;;;;;;5091284;28;19919;-57
2022/07/18 04:44:33;;;;;;;;;;;435.40;1920.00;;;;;;5091051;28;19948;-57
2022/07/18 04:46:58;;;;;;;;;;;460.80;1894.40;;;;;;5091359;28;19968;-57
2022/07/18 04:49:24;;;;;;;;;;;563.60;1587.20;;;;;;5091189;28;20376;-58
2022/07/18 04:51:50;;;;;;;;;;;666.10;1305.60;;;;;;5091157;28;19908;-57
2022/07/18 04:54:15;;;;;;;;;;;742.70;1177.60;;;;;;5091054;28;19962;-58
2022/07/18 04:56:41;;;;;;;;;;;793.80;1100.80;;;;;;5091168;28;19908;-57
2022/07/18 04:59:06;;;;;;;;;;;820.10;1024.00;;;;;;5090961;28;19908;-59
2022/07/18 05:01:32;;;;;;;;;;;845.10;1024.00;;;;;;5090313;28;20373;-58
2022/07/18 05:03:58;;;;;;;;;;;794.00;1049.60;;;;;;5091035;28;20266;-58
2022/07/18 05:06:23;;;;;;;;;;;743.20;1126.40;;;;;;5090641;28;19915;-57
2022/07/18 05:08:50;;;;;;;;;;;743.00;1126.40;;;;;;5090905;28;19934;-57
2022/07/18 05:11:15;;;;;;;;;;;819.70;1024.00;;;;;;5090642;28;19986;-59
2022/07/18 05:13:41;;;;;;;;;;;845.60;998.40;;;;;;5090669;28;20381;-58
2022/07/18 05:16:06;;;;;;;;;;;870.80;947.20;;;;;;5090399;28;19915;-59
2022/07/18 05:18:32;;;;;;;;;;;896.60;921.60;;;;;;5090346;28;20053;-59
2022/07/18 05:20:58;;;;;;;;;;;947.50;896.00;;;;;;5090733;28;19908;-59
2022/07/18 05:23:24;;;;;;;;;;;948.10;870.40;;;;;;5090459;28;19908;-58
2022/07/18 05:25:49;;;;;;;;;;;998.50;870.40;;;;;;5090348;28;19912;-59
2022/07/18 05:28:15;;;;;;;;;;;998.80;870.40;;;;;;5090570;28;19908;-60
2022/07/18 05:30:41;;;;;;;;;;;998.70;870.40;;;;;;5090515;28;19931;-59
2022/07/18 05:33:06;;;;;;;;;;;948.10;870.40;;;;;;5090806;28;19951;-59
2022/07/18 05:35:32;;;;;;;;;;;998.80;844.80;;;;;;5090428;28;19912;-59
2022/07/18 05:37:57;;;;;;;;;;;1049.70;819.20;;;;;;5090487;28;20003;-59
2022/07/18 05:40:23;;;;;;;;;;;1049.70;793.60;;;;;;5090362;28;19912;-59
2022/07/18 05:42:49;;;;;;;;;;;1024.70;768.00;;;;;;5090669;28;19912;-59
2022/07/18 05:45:15;;;;;;;;;;;1075.90;742.40;;;;;;5090279;28;19908;-60
2022/07/18 05:47:41;;;;;;;;;;;1101.20;742.40;;;;;;5090482;28;19915;-60
2022/07/18 05:50:07;;;;;;;;;;;1126.70;716.80;;;;;;5090361;28;19912;-60
2022/07/18 05:52:33;;;;;;;;;;;1126.90;716.80;;;;;;5090052;28;20006;-59
2022/07/18 05:54:58;;;;;;;;;;;1127.00;716.80;;;;;;5090349;28;20061;-59
2022/07/18 05:57:24;;;;;;;;;;;1152.50;691.20;;;;;;5090244;28;19934;-60
2022/07/18 05:59:50;;;;;;;;;;;1152.50;691.20;;;;;;5090396;28;19908;-60
2022/07/18 06:02:15;;;;;;;;;;;1127.10;716.80;;;;;;5090189;28;19991;-60
2022/07/18 06:04:41;;;;;;;;;;;1152.10;691.20;;;;;;5090514;28;19909;-59
2022/07/18 06:07:06;;;;;;;;;;;1152.00;716.80;;;;;;5090078;28;20285;-60
2022/07/18 06:09:32;;;;;;;;;;;1152.20;691.20;;;;;;5089998;28;19958;-60
2022/07/18 06:11:58;;;;;;;;;;;1152.60;691.20;;;;;;5090092;28;20354;-60
2022/07/18 06:14:24;;;;;;;;;;;1178.10;665.60;;;;;;5089982;28;20380;-60
2022/07/18 06:16:50;;;;;;;;;;;1178.20;665.60;;;;;;5090270;28;19993;-60
2022/07/18 06:19:15;;;;;;;;;;;1203.20;640.00;;;;;;5090090;28;20411;-60
2022/07/18 06:21:41;;;;;;;;;;;1203.70;640.00;;;;;;5090145;28;19974;-60
2022/07/18 06:24:06;;;;;;;;;;;1203.60;614.40;;;;;;5089975;28;19915;-58
2022/07/18 06:26:32;;;;;;;;;;;1203.60;640.00;;;;;;5089870;28;19909;-60
2022/07/18 06:28:58;;;;;;;;;;;1228.90;640.00;;;;;;5090227;28;19955;-60
2022/07/18 06:31:23;;;;;;;;;;;1229.00;640.00;;;;;;5089784;28;20312;-61
2022/07/18 06:33:49;;;;;;;;;;;1204.10;614.40;;;;;;5090049;28;19923;-60
2022/07/18 06:36:14;;;;;;;;;;;1229.00;640.00;;;;;;5091766;28;19959;-61
2022/07/18 06:38:40;;;;;;;;;;;1229.40;614.40;;;;;;5093578;28;19994;-61
2022/07/18 06:41:06;;;;;;;;;;;1254.40;640.00;;;;;;5093200;28;19912;-61
2022/07/18 06:43:32;;;;;;;;;;;1254.50;640.00;;;;;;5093712;28;19912;-61
2022/07/18 06:45:57;;;;;;;;;;;1254.80;640.00;;;;;;5093263;28;20012;-61
2022/07/18 06:48:23;;;;;;;;;;;1255.10;614.40;;;;;;5092751;28;19919;-60
2022/07/18 06:50:49;;;;;;;;;;;1280.20;614.40;;;;;;5093185;28;19912;-60
2022/07/18 06:53:14;;;;;;;;;;;1280.70;614.40;;;;;;5093001;28;19916;-60
2022/07/18 06:55:40;;;;;;;;;;;1280.40;614.40;;;;;;5093209;28;20007;-61
2022/07/18 06:58:05;;;;;;;;;;;1280.70;588.80;;;;;;5092740;28;19909;-62
2022/07/18 07:00:31;;;;;;;;;;;1306.20;588.80;;;;;;5092572;28;19920;-62
2022/07/18 07:02:57;;;;;;;;;;;1306.00;563.20;;;;;;5092470;28;19962;-62
2022/07/18 07:05:22;;;;;;;;;;;1331.40;588.80;;;;;;5092506;28;19912;-61
2022/07/18 07:07:48;;;;;;;;;;;1306.50;563.20;;;;;;5092711;28;19908;-60
2022/07/18 07:10:14;;;;;;;;;;;1331.20;563.20;;;;;;5092032;28;20362;-61
2022/07/18 07:12:40;;;;;;;;;;;1331.60;563.20;;;;;;5093965;28;19916;-58
2022/07/18 07:15:07;;;;;;;;;;;1331.20;588.80;;;;;;5102824;28;19916;-60
2022/07/18 07:17:32;;;;;;;;;;;1331.90;537.60;;;;;;5094876;28;19938;-60
2022/07/18 07:19:58;;;;;;;;;;;1356.90;537.60;;;;;;5092749;28;20369;-63
2022/07/18 07:22:23;;;;;;;;;;;1356.80;537.60;;;;;;5102654;28;19915;-59
2022/07/18 07:24:49;;;;;;;;;;;1357.50;537.60;;;;;;5101417;28;19918;-62
2022/07/18 07:27:15;;;;;;;;;;;1306.20;512.00;;;;;;5093231;28;20265;-59
2022/07/18 07:29:40;;;;;;;;;;;1331.90;512.00;;;;;;5092255;28;19908;-62
2022/07/18 07:32:06;;;;;;;;;;;1331.90;512.00;;;;;;5092527;28;20399;-63
2022/07/18 07:34:31;;;;;;;;;;;1305.60;512.00;;;;;;5092601;28;19961;-59
2022/07/18 07:36:57;;;;;;;;;;;1280.40;512.00;;;;;;5092713;28;19908;-62
2022/07/18 07:39:22;;;;;;;;;;;1306.20;512.00;;;;;;5092480;28;19959;-62
2022/07/18 07:41:48;;;;;;;;;;;1306.20;486.40;;;;;;5092277;28;19935;-63
2022/07/18 07:44:14;;;;;;;;;;;1331.20;512.00;;;;;;5092135;28;19965;-61
2022/07/18 07:46:39;;;;;;;;;;;1331.70;512.00;;;;;;5091976;28;20007;-61
2022/07/18 07:49:05;;;;;;;;;;;1331.90;512.00;;;;;;5091733;28;19974;-61
2022/07/18 07:51:30;;;;;;;;;;;1331.90;512.00;;;;;;5092472;28;19908;-61
2022/07/18 07:53:56;;;;;;;;;;;1331.90;512.00;;;;;;5092070;28;20298;-61
2022/07/18 07:56:21;;;;;;;;;;;1280.00;537.60;;;;;;5092224;28;19957;-62
2022/07/18 07:58:47;;;;;;;;;;;1306.50;512.00;;;;;;5092125;28;19912;-61
2022/07/18 08:01:14;;;;;;;;;;;1280.00;537.60;;;;;;5091705;28;20403;-60
2022/07/18 08:03:40;;;;;;;;;;;1255.00;537.60;;;;;;5091992;28;19955;-61
2022/07/18 08:06:05;;;;;;;;;;;1254.50;563.20;;;;;;5091771;28;19947;-61
2022/07/18 08:08:31;;;;;;;;;;;1255.30;537.60;;;;;;5092004;28;20331;-61
2022/07/18 08:10:56;;;;;;;;;;;1280.70;537.60;;;;;;5091754;28;19913;-61
2022/07/18 08:13:22;;;;;;;;;;;1280.90;512.00;;;;;;5091421;28;19924;-61
2022/07/18 08:15:48;;;;;;;;;;;1254.60;537.60;;;;;;5091806;28;19912;-60
2022/07/18 08:18:13;;;;;;;;;;;1203.30;537.60;;;;;;5091686;28;20026;-61
2022/07/18 08:20:39;;;;;;;;;;;1203.90;537.60;;;;;;5091899;28;20386;-59
2022/07/18 08:23:05;;;;;;;;;;;1203.70;512.00;;;;;;5089310;28;20277;-60
2022/07/18 08:25:34;;;;;;;;;;;1101.30;588.80;;;;;;5089947;28;19919;-61
2022/07/18 08:28:00;;;;;;;;;;;1024.60;614.40;;;;;;5090001;28;19908;-59
2022/07/18 08:30:26;;;;;;;;;;;947.80;665.60;;;;;;5089967;28;20014;-60
2022/07/18 08:32:52;;;;;;;;;;;922.40;716.80;;;;;;5089872;28;20366;-59
2022/07/18 08:35:17;;;;;;;;;;;896.90;716.80;;;;;;5090049;28;20010;-60
2022/07/18 08:37:43;;;;;;;;;;;896.00;742.40;;;;;;5088993;28;19908;-59
2022/07/18 08:40:09;;;;;;;;;;;896.20;742.40;;;;;;5089728;28;19908;-59
2022/07/18 08:42:35;;;;;;;;;;;896.20;768.00;;;;;;5089427;28;19944;-60
2022/07/18 08:45:01;;;;;;;;;;;896.20;793.60;;;;;;5089634;28;19970;-59
2022/07/18 08:47:29;;;;;;;;;;;870.80;793.60;;;;;;5089470;28;19908;-59
2022/07/18 08:49:54;;;;;;;;;;;870.40;793.60;;;;;;5088886;28;19948;-60
2022/07/18 08:52:20;;;;;;;;;;;845.40;844.80;;;;;;5089777;28;19966;-59
2022/07/18 08:54:48;;;;;;;;;;;844.90;870.40;;;;;;5089271;28;20014;-59
2022/07/18 08:57:14;;;;;;;;;;;844.80;870.40;;;;;;5089337;28;19908;-58
2022/07/18 08:59:40;;;;;;;;;;;844.90;870.40;;;;;;5088548;28;19955;-58
2022/07/18 09:02:06;;;;;;;;;;;844.90;870.40;;;;;;5088658;28;19974;-59
2022/07/18 09:04:33;;;;;;;;;;;820.10;844.80;;;;;;5089362;28;19908;-60
2022/07/18 09:06:58;;;;;;;;;;;819.80;870.40;;;;;;5089342;28;20247;-59
2022/07/18 09:09:24;;;;;;;;;;;819.50;870.40;;;;;;5089140;28;19912;-61
2022/07/18 09:11:50;;;;;;;;;;;794.30;896.00;;;;;;5089176;28;19912;-58
2022/07/18 09:14:29;;;;;;;;;;;794.20;947.20;;;;;;5085836;28;19924;-61
2022/07/18 09:17:01;;;;;;;;;;;794.50;921.60;;;;;;5086473;28;19938;-60
2022/07/18 09:19:27;;;;;;;;;;;819.30;921.60;;;;;;5088131;28;19908;-59
2022/07/18 09:21:52;;;;;;;;;;;794.40;921.60;;;;;;5088635;28;20457;-59
2022/07/18 09:24:18;;;;;;;;;;;794.50;947.20;;;;;;5083255;28;20015;-59
2022/07/18 09:26:45;;;;;;;;;;;794.00;921.60;;;;;;5088562;28;19915;-60
2022/07/18 09:29:15;;;;;;;;;;;793.60;921.60;;;;;;5087509;28;19912;-60
2022/07/18 09:31:48;;;;;;;;;;;794.00;947.20;;;;;;5088429;28;19912;-59
2022/07/18 09:34:13;;;;;;;;;;;793.60;921.60;;;;;;5085851;28;19928;-58
2022/07/18 09:36:53;;;;;;;;;;;768.90;870.40;;;;;;5088046;28;19919;-59
2022/07/18 09:39:19;;;;;;;;;;;768.90;870.40;;;;;;5087784;28;19923;-58
2022/07/18 09:41:45;;;;;;;;;;;768.10;921.60;;;;;;5087656;28;19916;-57
2022/07/18 09:44:17;;;;;;;;;;;768.40;921.60;;;;;;5088521;28;19912;-59
2022/07/18 09:46:59;;;;;;;;;;;768.10;896.00;;;;;;5088601;28;20003;-58
2022/07/18 09:49:28;;;;;;;;;;;768.20;896.00;;;;;;5088363;28;19919;-58
2022/07/18 09:52:01;;;;;;;;;;;768.40;896.00;;;;;;5088247;28;19908;-56
2022/07/18 09:54:35;;;;;;;;;;;768.20;896.00;;;;;;5087785;28;19920;-59
2022/07/18 09:57:00;;;;;;;;;;;768.10;921.60;;;;;;5086063;28;19919;-58
2022/07/18 09:59:26;;;;;;;;;;;742.90;921.60;;;;;;5088238;28;20269;-57
2022/07/18 10:01:52;;;;;;;;;;;743.10;921.60;;;;;;5088159;28;19928;-58
2022/07/18 10:04:17;;;;;;;;;;;743.10;921.60;;;;;;5088406;28;19939;-58
2022/07/18 10:06:44;;;;;;;;;;;743.30;896.00;;;;;;5088091;28;19911;-58
2022/07/18 10:09:10;;;;;;;;;;;768.00;870.40;;;;;;5087793;28;19908;-58
2022/07/18 10:11:36;;;;;;;;;;;768.20;896.00;;;;;;5090537;28;20364;-58
2022/07/18 10:14:01;;;;;;;;;;;768.10;921.60;;;;;;5092443;28;19928;-59
2022/07/18 10:16:27;;;;;;;;;;;768.20;896.00;;;;;;5091827;28;19930;-58
2022/07/18 10:18:52;;;;;;;;;;;768.20;921.60;;;;;;5091547;28;19984;-59
2022/07/18 10:21:19;;;;;;;;;;;768.00;896.00;;;;;;5091358;28;19926;-58
2022/07/18 10:23:46;;;;;;;;;;;768.10;896.00;;;;;;5091887;28;19912;-57
2022/07/18 10:26:18;;;;;;;;;;;743.30;896.00;;;;;;5092222;28;20336;-57
2022/07/18 10:28:55;;;;;;;;;;;768.00;896.00;;;;;;5089122;28;19997;-58
2022/07/18 10:31:25;;;;;;;;;;;743.10;921.60;;;;;;5091735;28;19912;-57
2022/07/18 10:33:51;;;;;;;;;;;768.00;921.60;;;;;;5091370;28;19959;-57
2022/07/18 10:36:17;;;;;;;;;;;768.00;921.60;;;;;;5091418;28;19909;-57
2022/07/18 10:39:04;;;;;;;;;;;768.00;921.60;;;;;;5088732;28;19947;-58
2022/07/18 10:41:30;;;;;;;;;;;743.30;921.60;;;;;;5085872;28;20259;-57
2022/07/18 10:43:55;;;;;;;;;;;742.80;947.20;;;;;;5091370;28;19965;-58
2022/07/18 10:46:21;;;;;;;;;;;743.00;947.20;;;;;;5091405;28;20358;-57
2022/07/18 10:48:47;;;;;;;;;;;743.20;947.20;;;;;;5091298;28;20532;-58
2022/07/18 10:51:15;;;;;;;;;;;743.20;921.60;;;;;;5091780;28;20251;-59
2022/07/18 10:53:53;;;;;;;;;;;743.00;921.60;;;;;;5091807;28;19923;-58
2022/07/18 10:56:19;;;;;;;;;;;742.50;972.80;;;;;;5091345;28;19912;-58
2022/07/18 10:58:45;;;;;;;;;;;717.70;921.60;;;;;;5091195;28;19912;-58
2022/07/18 11:01:15;;;;;;;;;;;742.50;947.20;;;;;;5090612;28;20297;-58
2022/07/18 11:03:40;;;;;;;;;;;742.60;947.20;;;;;;5091307;28;19908;-56
2022/07/18 11:06:06;;;;;;;;;;;742.80;947.20;;;;;;5090858;28;19919;-60
2022/07/18 11:08:33;;;;;;;;;;;742.80;947.20;;;;;;5091316;28;19912;-57
2022/07/18 11:11:04;;;;;;;;;;;743.10;947.20;;;;;;5091261;28;19919;-58
2022/07/18 11:13:37;;;;;;;;;;;743.20;947.20;;;;;;5088107;28;19928;-57
2022/07/18 11:16:09;;;;;;;;;;;743.10;921.60;;;;;;5089171;28;19916;-58
2022/07/18 11:18:44;;;;;;;;;;;742.80;947.20;;;;;;5091156;28;19919;-57
2022/07/18 11:21:23;;;;;;;;;;;742.50;947.20;;;;;;5088651;28;20365;-58
2022/07/18 11:23:50;;;;;;;;;;;742.40;947.20;;;;;;5090439;28;20347;-58
2022/07/18 11:26:19;;;;;;;;;;;742.70;947.20;;;;;;5090586;28;20357;-59
2022/07/18 11:28:55;;;;;;;;;;;743.10;947.20;;;;;;5090774;28;19908;-59
2022/07/18 11:31:21;;;;;;;;;;;743.00;947.20;;;;;;5091044;28;20423;-58
2022/07/18 11:33:48;;;;;;;;;;;742.80;972.80;;;;;;5090750;28;19924;-56
2022/07/18 11:36:15;;;;;;;;;;;743.00;947.20;;;;;;5091080;28;19961;-59
2022/07/18 11:38:51;;;;;;;;;;;742.60;947.20;;;;;;5090803;28;19951;-57
2022/07/18 11:41:17;;;;;;;;;;;742.60;947.20;;;;;;5090684;28;19916;-59
2022/07/18 11:43:43;;;;;;;;;;;742.70;947.20;;;;;;5090828;28;20065;-58
2022/07/18 11:46:10;;;;;;;;;;;742.70;947.20;;;;;;5091085;28;19908;-58
2022/07/18 11:48:37;;;;;;;;;;;742.70;947.20;;;;;;5090674;28;19908;-58
2022/07/18 11:51:08;;;;;;;;;;;742.50;947.20;;;;;;5090651;28;20442;-58
2022/07/18 11:53:33;;;;;;;;;;;742.80;947.20;;;;;;5090054;28;19920;-58
2022/07/18 11:56:03;;;;;;;;;;;742.50;947.20;;;;;;5090657;28;20317;-56
2022/07/18 11:58:34;;;;;;;;;;;743.00;947.20;;;;;;5090747;28;20381;-57
2022/07/18 12:01:00;;;;;;;;;;;743.00;947.20;;;;;;5090514;28;19959;-58
2022/07/18 12:03:27;;;;;;;;;;;743.10;947.20;;;;;;5090394;28;20377;-59
2022/07/18 12:05:53;;;;;;;;;;;743.30;947.20;;;;;;5089926;28;19908;-58
2022/07/18 12:08:27;;;;;;;;;;;743.20;921.60;;;;;;5090490;28;20298;-58
2022/07/18 12:11:03;;;;;;;;;;;743.00;921.60;;;;;;5090022;28;19920;-59
2022/07/18 12:13:39;;;;;;;;;;;743.20;947.20;;;;;;5090196;28;19969;-59
2022/07/18 12:16:04;;;;;;;;;;;743.00;947.20;;;;;;5090102;28;19916;-58
2022/07/18 12:18:30;;;;;;;;;;;768.00;947.20;;;;;;5089848;28;20285;-58
2022/07/18 12:21:08;;;;;;;;;;;768.10;921.60;;;;;;5089982;28;20289;-59
2022/07/18 12:23:34;;;;;;;;;;;768.10;921.60;;;;;;5090608;28;19912;-58
2022/07/18 12:26:01;;;;;;;;;;;768.30;947.20;;;;;;5091985;28;19909;-59
2022/07/18 12:28:27;;;;;;;;;;;768.10;947.20;;;;;;5091344;28;19914;-59
2022/07/18 12:30:53;;;;;;;;;;;743.20;947.20;;;;;;5091230;28;20077;-60
2022/07/18 12:33:18;;;;;;;;;;;743.30;947.20;;;;;;5091218;28;19916;-58
2022/07/18 12:35:44;;;;;;;;;;;768.00;947.20;;;;;;5091272;28;20339;-59
2022/07/18 12:38:11;;;;;;;;;;;743.30;947.20;;;;;;5091396;28;20278;-60
2022/07/18 12:40:47;;;;;;;;;;;743.30;947.20;;;;;;5089134;28;19927;-60
2022/07/18 12:43:21;;;;;;;;;;;768.20;947.20;;;;;;5089747;28;19928;-59
2022/07/18 12:45:47;;;;;;;;;;;743.30;947.20;;;;;;5089446;28;19909;-58
2022/07/18 12:48:12;;;;;;;;;;;768.10;921.60;;;;;;5089730;28;20654;-60
2022/07/18 12:50:38;;;;;;;;;;;768.00;921.60;;;;;;5089568;28;20424;-58
2022/07/18 12:53:04;;;;;;;;;;;768.30;947.20;;;;;;5089052;28;19916;-58
2022/07/18 12:55:30;;;;;;;;;;;768.40;947.20;;;;;;5089808;28;19957;-59
2022/07/18 12:57:56;;;;;;;;;;;768.00;947.20;;;;;;5089451;28;19909;-59
2022/07/18 13:00:21;;;;;;;;;;;768.10;947.20;;;;;;5089421;28;19928;-59
2022/07/18 13:02:47;;;;;;;;;;;768.10;947.20;;;;;;5089336;28;19909;-58
2022/07/18 13:05:13;;;;;;;;;;;768.00;921.60;;;;;;5089164;28;20266;-59
2022/07/18 13:07:38;;;;;;;;;;;743.10;921.60;;;;;;5088976;28;19908;-57
2022/07/18 13:10:05;;;;;;;;;;;743.30;972.80;;;;;;5089261;28;19951;-59
2022/07/18 13:12:30;;;;;;;;;;;768.20;947.20;;;;;;5089600;28;19961;-58
2022/07/18 13:14:56;;;;;;;;;;;768.10;947.20;;;;;;5089183;28;19999;-60
2022/07/18 13:17:21;;;;;;;;;;;768.10;947.20;;;;;;5089435;28;20378;-60
2022/07/18 13:19:47;;;;;;;;;;;768.00;921.60;;;;;;5088878;28;19939;-58
2022/07/18 13:22:13;;;;;;;;;;;768.00;947.20;;;;;;5088896;28;20407;-60
2022/07/18 13:24:38;;;;;;;;;;;743.10;921.60;;;;;;5089401;28;19928;-59
2022/07/18 13:27:04;;;;;;;;;;;743.10;921.60;;;;;;5089020;28;19942;-59
2022/07/18 13:29:30;;;;;;;;;;;743.00;947.20;;;;;;5088456;28;19942;-59
2022/07/18 13:31:56;;;;;;;;;;;743.00;921.60;;;;;;5088046;28;19916;-59
2022/07/18 13:34:22;;;;;;;;;;;743.10;921.60;;;;;;5085687;28;19926;-59
2022/07/18 13:36:48;;;;;;;;;;;768.00;972.80;;;;;;5090540;28;20002;-59
2022/07/18 13:39:14;;;;;;;;;;;743.10;896.00;;;;;;5090091;28;19908;-58
2022/07/18 13:41:39;;;;;;;;;;;743.20;896.00;;;;;;5089697;28;20362;-58
2022/07/18 13:44:05;;;;;;;;;;;743.10;870.40;;;;;;5090103;28;19967;-58
2022/07/18 13:46:31;;;;;;;;;;;743.30;921.60;;;;;;5093066;28;19953;-59